Terminal Aerodrome Forecast
Issued by NWS

Home | Current Version | Previous Version | Text Only | Print | Product List | Glossary On
Versions: 1 2 3 4 5 6 7 8 9 10 11 12 13 14 15
000
FTUS46 KLOX 020500
TAFLGB
TAF
KLGB 020520Z 0206/0306 30006KT P6SM SKC
     FM020900 VRB03KT P6SM OVC010
     FM021700 VRB03KT P6SM SCT015 BKN200
     FM021900 18004KT P6SM BKN200
     FM022100 20010KT P6SM SCT120 BKN200
     FM030300 20005KT P6SM BKN120 OVC200=

USA.gov is the U.S. government's official web portal to all federal, state and local government web resources and services.